sensor_id;sensor_type;location;lat;lon;timestamp;temperature;humidity
59973;DHT22;55298;-36.624;-64.282;2023-08-06T00:01:02;15.70;50.80
59973;DHT22;55298;-36.624;-64.282;2023-08-06T00:03:30;15.60;50.80
59973;DHT22;55298;-36.624;-64.282;2023-08-06T00:05:58;15.60;51.20
59973;DHT22;55298;-36.624;-64.282;2023-08-06T00:08:26;15.50;51.20
59973;DHT22;55298;-36.624;-64.282;2023-08-06T00:10:54;15.40;51.40
59973;DHT22;55298;-36.624;-64.282;2023-08-06T00:13:22;15.40;51.70
59973;DHT22;55298;-36.624;-64.282;2023-08-06T00:16:07;15.20;52.00
59973;DHT22;55298;-36.624;-64.282;2023-08-06T00:18:35;15.10;52.30
59973;DHT22;55298;-36.624;-64.282;2023-08-06T00:21:03;15.00;52.80
59973;DHT22;55298;-36.624;-64.282;2023-08-06T00:23:30;14.90;53.10
59973;DHT22;55298;-36.624;-64.282;2023-08-06T00:25:58;14.90;53.50
59973;DHT22;55298;-36.624;-64.282;2023-08-06T00:28:26;14.80;53.80
59973;DHT22;55298;-36.624;-64.282;2023-08-06T00:30:55;14.70;53.20
59973;DHT22;55298;-36.624;-64.282;2023-08-06T00:33:24;14.70;54.00
59973;DHT22;55298;-36.624;-64.282;2023-08-06T00:35:52;14.70;54.20
59973;DHT22;55298;-36.624;-64.282;2023-08-06T00:38:22;14.50;54.40
59973;DHT22;55298;-36.624;-64.282;2023-08-06T00:40:50;14.50;54.60
59973;DHT22;55298;-36.624;-64.282;2023-08-06T00:43:18;14.50;54.60
59973;DHT22;55298;-36.624;-64.282;2023-08-06T00:45:47;14.50;54.60
59973;DHT22;55298;-36.624;-64.282;2023-08-06T00:48:15;14.50;54.50
59973;DHT22;55298;-36.624;-64.282;2023-08-06T00:50:43;14.50;54.50
59973;DHT22;55298;-36.624;-64.282;2023-08-06T00:53:11;14.50;54.50
59973;DHT22;55298;-36.624;-64.282;2023-08-06T00:55:39;14.50;54.30
59973;DHT22;55298;-36.624;-64.282;2023-08-06T00:58:08;14.40;54.30
59973;DHT22;55298;-36.624;-64.282;2023-08-06T01:00:35;14.50;54.00
59973;DHT22;55298;-36.624;-64.282;2023-08-06T01:03:04;14.50;54.00
59973;DHT22;55298;-36.624;-64.282;2023-08-06T01:05:32;14.50;53.90
59973;DHT22;55298;-36.624;-64.282;2023-08-06T01:08:23;14.50;53.90
59973;DHT22;55298;-36.624;-64.282;2023-08-06T01:13:58;14.40;53.80
59973;DHT22;55298;-36.624;-64.282;2023-08-06T01:16:27;14.40;53.80
59973;DHT22;55298;-36.624;-64.282;2023-08-06T01:18:58;14.40;53.60
59973;DHT22;55298;-36.624;-64.282;2023-08-06T01:21:25;14.40;53.80
59973;DHT22;55298;-36.624;-64.282;2023-08-06T01:23:53;14.30;53.70
59973;DHT22;55298;-36.624;-64.282;2023-08-06T01:26:34;14.30;53.70
59973;DHT22;55298;-36.624;-64.282;2023-08-06T01:31:50;14.20;53.90
59973;DHT22;55298;-36.624;-64.282;2023-08-06T01:34:22;14.20;53.90
59973;DHT22;55298;-36.624;-64.282;2023-08-06T01:36:51;14.20;53.90
59973;DHT22;55298;-36.624;-64.282;2023-08-06T01:39:22;14.10;53.80
59973;DHT22;55298;-36.624;-64.282;2023-08-06T01:41:50;14.00;53.80
59973;DHT22;55298;-36.624;-64.282;2023-08-06T01:44:20;14.00;53.90
59973;DHT22;55298;-36.624;-64.282;2023-08-06T01:46:47;14.00;53.80
59973;DHT22;55298;-36.624;-64.282;2023-08-06T01:49:15;13.90;53.70
59973;DHT22;55298;-36.624;-64.282;2023-08-06T01:51:43;13.90;53.60
59973;DHT22;55298;-36.624;-64.282;2023-08-06T01:54:11;13.90;53.60
59973;DHT22;55298;-36.624;-64.282;2023-08-06T01:56:38;13.90;53.60
59973;DHT22;55298;-36.624;-64.282;2023-08-06T01:59:10;13.90;53.20
59973;DHT22;55298;-36.624;-64.282;2023-08-06T02:01:38;13.90;52.80
59973;DHT22;55298;-36.624;-64.282;2023-08-06T02:04:06;13.90;52.60
59973;DHT22;55298;-36.624;-64.282;2023-08-06T02:06:34;13.90;52.50
59973;DHT22;55298;-36.624;-64.282;2023-08-06T02:09:01;13.90;52.30
59973;DHT22;55298;-36.624;-64.282;2023-08-06T02:11:29;13.90;52.30
59973;DHT22;55298;-36.624;-64.282;2023-08-06T02:13:57;13.90;52.30
59973;DHT22;55298;-36.624;-64.282;2023-08-06T02:16:25;13.80;52.20
59973;DHT22;55298;-36.624;-64.282;2023-08-06T02:18:52;13.90;52.20
59973;DHT22;55298;-36.624;-64.282;2023-08-06T02:21:20;13.80;52.00
59973;DHT22;55298;-36.624;-64.282;2023-08-06T02:23:48;13.90;51.70
59973;DHT22;55298;-36.624;-64.282;2023-08-06T02:26:19;13.80;51.70
59973;DHT22;55298;-36.624;-64.282;2023-08-06T02:28:46;13.80;51.50
59973;DHT22;55298;-36.624;-64.282;2023-08-06T02:31:14;13.80;51.30
59973;DHT22;55298;-36.624;-64.282;2023-08-06T02:33:42;13.70;51.20
59973;DHT22;55298;-36.624;-64.282;2023-08-06T02:36:12;13.60;51.10
59973;DHT22;55298;-36.624;-64.282;2023-08-06T02:38:40;13.70;51.00
59973;DHT22;55298;-36.624;-64.282;2023-08-06T02:41:07;13.60;50.90
59973;DHT22;55298;-36.624;-64.282;2023-08-06T02:43:35;13.60;51.00
59973;DHT22;55298;-36.624;-64.282;2023-08-06T02:46:03;13.50;51.00
59973;DHT22;55298;-36.624;-64.282;2023-08-06T02:48:31;13.40;50.90
59973;DHT22;55298;-36.624;-64.282;2023-08-06T02:53:34;13.30;51.10
59973;DHT22;55298;-36.624;-64.282;2023-08-06T02:56:02;13.30;51.80
59973;DHT22;55298;-36.624;-64.282;2023-08-06T02:58:30;13.20;51.20
59973;DHT22;55298;-36.624;-64.282;2023-08-06T03:01:06;14.40;51.90
59973;DHT22;55298;-36.624;-64.282;2023-08-06T03:03:35;13.10;51.30
59973;DHT22;55298;-36.624;-64.282;2023-08-06T03:06:03;13.10;51.20
59973;DHT22;55298;-36.624;-64.282;2023-08-06T03:08:30;12.90;51.20
59973;DHT22;55298;-36.624;-64.282;2023-08-06T03:10:58;13.00;51.20
59973;DHT22;55298;-36.624;-64.282;2023-08-06T03:13:26;12.90;51.00
59973;DHT22;55298;-36.624;-64.282;2023-08-06T03:16:06;13.00;51.50
59973;DHT22;55298;-36.624;-64.282;2023-08-06T03:18:34;12.90;51.60
59973;DHT22;55298;-36.624;-64.282;2023-08-06T03:21:02;13.00;51.70
59973;DHT22;55298;-36.624;-64.282;2023-08-06T03:23:34;13.20;52.10
59973;DHT22;55298;-36.624;-64.282;2023-08-06T03:26:05;12.70;51.50
59973;DHT22;55298;-36.624;-64.282;2023-08-06T03:28:33;12.60;51.90
59973;DHT22;55298;-36.624;-64.282;2023-08-06T03:31:03;15.90;53.90
59973;DHT22;55298;-36.624;-64.282;2023-08-06T03:33:31;12.60;52.50
59973;DHT22;55298;-36.624;-64.282;2023-08-06T03:35:59;12.90;52.50
59973;DHT22;55298;-36.624;-64.282;2023-08-06T03:38:27;13.60;52.90
59973;DHT22;55298;-36.624;-64.282;2023-08-06T03:40:55;12.40;52.40
59973;DHT22;55298;-36.624;-64.282;2023-08-06T03:43:28;12.40;52.80
59973;DHT22;55298;-36.624;-64.282;2023-08-06T03:46:03;12.40;53.00
59973;DHT22;55298;-36.624;-64.282;2023-08-06T03:48:31;12.20;52.60
59973;DHT22;55298;-36.624;-64.282;2023-08-06T03:50:59;13.90;54.00
59973;DHT22;55298;-36.624;-64.282;2023-08-06T03:53:31;12.30;53.20
59973;DHT22;55298;-36.624;-64.282;2023-08-06T03:56:00;12.10;53.00
59973;DHT22;55298;-36.624;-64.282;2023-08-06T03:58:43;12.10;53.50
59973;DHT22;55298;-36.624;-64.282;2023-08-06T04:01:11;12.00;53.20
59973;DHT22;55298;-36.624;-64.282;2023-08-06T04:03:39;13.30;54.50
59973;DHT22;55298;-36.624;-64.282;2023-08-06T04:06:07;11.90;53.80
59973;DHT22;55298;-36.624;-64.282;2023-08-06T04:08:35;11.80;54.20
59973;DHT22;55298;-36.624;-64.282;2023-08-06T04:11:39;11.80;53.70
59973;DHT22;55298;-36.624;-64.282;2023-08-06T04:14:07;11.80;54.40
59973;DHT22;55298;-36.624;-64.282;2023-08-06T04:16:35;11.70;54.70
59973;DHT22;55298;-36.624;-64.282;2023-08-06T04:19:02;11.60;54.80
59973;DHT22;55298;-36.624;-64.282;2023-08-06T04:21:30;11.60;54.60
59973;DHT22;55298;-36.624;-64.282;2023-08-06T04:23:58;11.60;54.50
59973;DHT22;55298;-36.624;-64.282;2023-08-06T04:26:26;11.50;54.50
59973;DHT22;55298;-36.624;-64.282;2023-08-06T04:28:53;11.50;54.80
59973;DHT22;55298;-36.624;-64.282;2023-08-06T04:31:22;11.50;54.90
59973;DHT22;55298;-36.624;-64.282;2023-08-06T04:33:50;11.50;54.90
59973;DHT22;55298;-36.624;-64.282;2023-08-06T04:36:18;11.40;54.80
59973;DHT22;55298;-36.624;-64.282;2023-08-06T04:38:45;11.30;55.00
59973;DHT22;55298;-36.624;-64.282;2023-08-06T04:41:14;11.40;55.10
59973;DHT22;55298;-36.624;-64.282;2023-08-06T04:43:42;11.40;54.70
59973;DHT22;55298;-36.624;-64.282;2023-08-06T04:46:09;11.30;54.90
59973;DHT22;55298;-36.624;-64.282;2023-08-06T04:48:37;11.30;54.50
59973;DHT22;55298;-36.624;-64.282;2023-08-06T04:51:05;11.30;54.80
59973;DHT22;55298;-36.624;-64.282;2023-08-06T04:56:46;11.20;55.00
59973;DHT22;55298;-36.624;-64.282;2023-08-06T04:59:14;11.20;55.00
59973;DHT22;55298;-36.624;-64.282;2023-08-06T05:01:41;11.20;55.20
59973;DHT22;55298;-36.624;-64.282;2023-08-06T05:04:09;11.20;55.30
59973;DHT22;55298;-36.624;-64.282;2023-08-06T05:06:37;11.20;55.00
59973;DHT22;55298;-36.624;-64.282;2023-08-06T05:09:07;11.20;54.80
59973;DHT22;55298;-36.624;-64.282;2023-08-06T05:11:34;11.30;54.20
59973;DHT22;55298;-36.624;-64.282;2023-08-06T05:14:02;11.40;53.90
59973;DHT22;55298;-36.624;-64.282;2023-08-06T05:16:31;11.40;53.70
59973;DHT22;55298;-36.624;-64.282;2023-08-06T05:18:58;11.40;53.60
59973;DHT22;55298;-36.624;-64.282;2023-08-06T05:21:26;11.40;53.40
59973;DHT22;55298;-36.624;-64.282;2023-08-06T05:23:56;11.50;53.30
59973;DHT22;55298;-36.624;-64.282;2023-08-06T05:26:39;11.50;53.30
59973;DHT22;55298;-36.624;-64.282;2023-08-06T05:31:35;11.50;52.50
59973;DHT22;55298;-36.624;-64.282;2023-08-06T05:34:06;11.40;52.50
59973;DHT22;55298;-36.624;-64.282;2023-08-06T05:36:34;11.50;52.50
59973;DHT22;55298;-36.624;-64.282;2023-08-06T05:42:25;11.40;52.40
59973;DHT22;55298;-36.624;-64.282;2023-08-06T05:48:24;11.20;52.70
59973;DHT22;55298;-36.624;-64.282;2023-08-06T05:50:54;11.30;54.00
59973;DHT22;55298;-36.624;-64.282;2023-08-06T05:53:22;11.20;54.60
59973;DHT22;55298;-36.624;-64.282;2023-08-06T05:55:51;11.10;55.10
59973;DHT22;55298;-36.624;-64.282;2023-08-06T05:58:19;9.40;54.60
59973;DHT22;55298;-36.624;-64.282;2023-08-06T06:00:50;11.00;55.70
59973;DHT22;55298;-36.624;-64.282;2023-08-06T06:06:27;10.90;55.50
59973;DHT22;55298;-36.624;-64.282;2023-08-06T06:09:31;10.80;55.90
59973;DHT22;55298;-36.624;-64.282;2023-08-06T06:11:59;10.80;55.60
59973;DHT22;55298;-36.624;-64.282;2023-08-06T06:14:27;10.70;55.80
59973;DHT22;55298;-36.624;-64.282;2023-08-06T06:20:05;10.80;55.60
59973;DHT22;55298;-36.624;-64.282;2023-08-06T06:23:07;10.80;54.90
59973;DHT22;55298;-36.624;-64.282;2023-08-06T06:25:43;10.80;54.90
59973;DHT22;55298;-36.624;-64.282;2023-08-06T06:28:24;10.90;55.10
59973;DHT22;55298;-36.624;-64.282;2023-08-06T06:30:52;10.80;55.40
59973;DHT22;55298;-36.624;-64.282;2023-08-06T06:33:47;10.80;54.90
59973;DHT22;55298;-36.624;-64.282;2023-08-06T06:41:11;10.80;54.30
59973;DHT22;55298;-36.624;-64.282;2023-08-06T06:43:39;10.60;54.20
59973;DHT22;55298;-36.624;-64.282;2023-08-06T06:46:09;10.60;54.30
59973;DHT22;55298;-36.624;-64.282;2023-08-06T06:51:13;10.60;54.20
59973;DHT22;55298;-36.624;-64.282;2023-08-06T06:53:44;10.60;53.70
59973;DHT22;55298;-36.624;-64.282;2023-08-06T06:56:14;10.60;54.20
59973;DHT22;55298;-36.624;-64.282;2023-08-06T06:58:59;10.60;54.60
59973;DHT22;55298;-36.624;-64.282;2023-08-06T07:03:55;10.60;54.80
59973;DHT22;55298;-36.624;-64.282;2023-08-06T07:08:52;10.60;55.00
59973;DHT22;55298;-36.624;-64.282;2023-08-06T07:11:24;10.70;55.10
59973;DHT22;55298;-36.624;-64.282;2023-08-06T07:14:08;10.70;54.90
59973;DHT22;55298;-36.624;-64.282;2023-08-06T07:16:35;10.70;55.00
59973;DHT22;55298;-36.624;-64.282;2023-08-06T07:19:03;10.70;55.60
59973;DHT22;55298;-36.624;-64.282;2023-08-06T07:21:32;10.60;55.90
59973;DHT22;55298;-36.624;-64.282;2023-08-06T07:24:01;10.60;54.90
59973;DHT22;55298;-36.624;-64.282;2023-08-06T07:26:29;10.60;54.80
59973;DHT22;55298;-36.624;-64.282;2023-08-06T07:28:58;10.50;55.60
59973;DHT22;55298;-36.624;-64.282;2023-08-06T07:31:26;10.50;56.10
59973;DHT22;55298;-36.624;-64.282;2023-08-06T07:33:54;10.60;55.80
59973;DHT22;55298;-36.624;-64.282;2023-08-06T07:36:22;10.60;56.00
59973;DHT22;55298;-36.624;-64.282;2023-08-06T07:38:50;10.70;55.80
59973;DHT22;55298;-36.624;-64.282;2023-08-06T07:41:23;12.10;57.50
59973;DHT22;55298;-36.624;-64.282;2023-08-06T07:43:51;10.70;57.20
59973;DHT22;55298;-36.624;-64.282;2023-08-06T07:46:19;10.70;56.10
59973;DHT22;55298;-36.624;-64.282;2023-08-06T07:48:47;10.60;56.10
59973;DHT22;55298;-36.624;-64.282;2023-08-06T07:51:14;10.70;56.40
59973;DHT22;55298;-36.624;-64.282;2023-08-06T07:53:42;10.70;55.80
59973;DHT22;55298;-36.624;-64.282;2023-08-06T07:56:10;11.00;56.80
59973;DHT22;55298;-36.624;-64.282;2023-08-06T07:58:38;10.70;56.00
59973;DHT22;55298;-36.624;-64.282;2023-08-06T08:01:07;10.60;57.40
59973;DHT22;55298;-36.624;-64.282;2023-08-06T08:03:35;10.60;57.10
59973;DHT22;55298;-36.624;-64.282;2023-08-06T08:06:03;10.60;56.20
59973;DHT22;55298;-36.624;-64.282;2023-08-06T08:08:31;10.60;56.20
59973;DHT22;55298;-36.624;-64.282;2023-08-06T08:10:58;10.50;57.00
59973;DHT22;55298;-36.624;-64.282;2023-08-06T08:13:27;10.70;56.20
59973;DHT22;55298;-36.624;-64.282;2023-08-06T08:15:59;11.30;56.80
59973;DHT22;55298;-36.624;-64.282;2023-08-06T08:18:27;10.50;56.10
59973;DHT22;55298;-36.624;-64.282;2023-08-06T08:23:24;10.50;56.90
59973;DHT22;55298;-36.624;-64.282;2023-08-06T08:25:52;10.40;56.20
59973;DHT22;55298;-36.624;-64.282;2023-08-06T08:28:20;10.30;56.50
59973;DHT22;55298;-36.624;-64.282;2023-08-06T08:30:49;10.30;56.50
59973;DHT22;55298;-36.624;-64.282;2023-08-06T08:35:47;10.30;55.50
59973;DHT22;55298;-36.624;-64.282;2023-08-06T08:38:15;10.30;56.00
59973;DHT22;55298;-36.624;-64.282;2023-08-06T08:40:46;10.20;55.90
59973;DHT22;55298;-36.624;-64.282;2023-08-06T08:43:22;10.20;56.50
59973;DHT22;55298;-36.624;-64.282;2023-08-06T08:45:51;10.20;55.80
59973;DHT22;55298;-36.624;-64.282;2023-08-06T08:48:23;10.10;55.70
59973;DHT22;55298;-36.624;-64.282;2023-08-06T08:53:25;10.00;56.10
59973;DHT22;55298;-36.624;-64.282;2023-08-06T08:55:55;8.10;55.60
59973;DHT22;55298;-36.624;-64.282;2023-08-06T08:58:23;10.00;56.00
59973;DHT22;55298;-36.624;-64.282;2023-08-06T09:00:53;9.90;56.40
59973;DHT22;55298;-36.624;-64.282;2023-08-06T09:03:21;10.00;55.90
59973;DHT22;55298;-36.624;-64.282;2023-08-06T09:08:32;9.90;57.10
59973;DHT22;55298;-36.624;-64.282;2023-08-06T09:11:02;10.00;57.60
59973;DHT22;55298;-36.624;-64.282;2023-08-06T09:13:30;9.80;57.90
59973;DHT22;55298;-36.624;-64.282;2023-08-06T09:15:58;9.80;57.40
59973;DHT22;55298;-36.624;-64.282;2023-08-06T09:20:56;9.70;57.30
59973;DHT22;55298;-36.624;-64.282;2023-08-06T09:23:32;9.70;57.40
59973;DHT22;55298;-36.624;-64.282;2023-08-06T09:26:00;9.70;57.10
59973;DHT22;55298;-36.624;-64.282;2023-08-06T09:28:38;11.90;58.60
59973;DHT22;55298;-36.624;-64.282;2023-08-06T09:31:06;9.60;57.40
59973;DHT22;55298;-36.624;-64.282;2023-08-06T09:33:35;9.60;58.80
59973;DHT22;55298;-36.624;-64.282;2023-08-06T09:36:13;9.60;58.10
59973;DHT22;55298;-36.624;-64.282;2023-08-06T09:38:46;11.40;59.00
59973;DHT22;55298;-36.624;-64.282;2023-08-06T09:41:30;9.60;58.30
59973;DHT22;55298;-36.624;-64.282;2023-08-06T09:43:59;9.50;58.10
59973;DHT22;55298;-36.624;-64.282;2023-08-06T09:46:29;9.50;58.10
59973;DHT22;55298;-36.624;-64.282;2023-08-06T09:49:00;9.50;59.50
59973;DHT22;55298;-36.624;-64.282;2023-08-06T09:51:34;9.40;59.00
59973;DHT22;55298;-36.624;-64.282;2023-08-06T09:54:07;10.00;60.70
59973;DHT22;55298;-36.624;-64.282;2023-08-06T09:56:39;9.20;58.60
59973;DHT22;55298;-36.624;-64.282;2023-08-06T09:59:09;9.20;59.10
59973;DHT22;55298;-36.624;-64.282;2023-08-06T10:04:22;9.10;59.60
59973;DHT22;55298;-36.624;-64.282;2023-08-06T10:06:52;9.00;59.00
59973;DHT22;55298;-36.624;-64.282;2023-08-06T10:11:54;9.00;59.10
59973;DHT22;55298;-36.624;-64.282;2023-08-06T10:14:32;9.00;61.20
59973;DHT22;55298;-36.624;-64.282;2023-08-06T10:17:29;9.00;61.70
59973;DHT22;55298;-36.624;-64.282;2023-08-06T10:20:07;8.90;60.10
59973;DHT22;55298;-36.624;-64.282;2023-08-06T10:22:44;9.00;61.50
59973;DHT22;55298;-36.624;-64.282;2023-08-06T10:25:31;8.90;61.20
59973;DHT22;55298;-36.624;-64.282;2023-08-06T10:28:38;8.90;61.10
59973;DHT22;55298;-36.624;-64.282;2023-08-06T10:31:07;7.40;62.00
59973;DHT22;55298;-36.624;-64.282;2023-08-06T10:33:58;8.90;62.50
59973;DHT22;55298;-36.624;-64.282;2023-08-06T10:36:27;8.90;64.70
59973;DHT22;55298;-36.624;-64.282;2023-08-06T10:38:58;8.90;65.60
59973;DHT22;55298;-36.624;-64.282;2023-08-06T10:41:30;8.80;66.00
59973;DHT22;55298;-36.624;-64.282;2023-08-06T10:44:07;8.80;64.90
59973;DHT22;55298;-36.624;-64.282;2023-08-06T10:46:36;8.80;65.80
59973;DHT22;55298;-36.624;-64.282;2023-08-06T10:49:04;8.70;66.10
59973;DHT22;55298;-36.624;-64.282;2023-08-06T10:51:34;8.80;66.10
59973;DHT22;55298;-36.624;-64.282;2023-08-06T10:54:03;8.70;67.10
59973;DHT22;55298;-36.624;-64.282;2023-08-06T10:56:32;8.70;66.10
59973;DHT22;55298;-36.624;-64.282;2023-08-06T10:59:07;8.80;66.90
59973;DHT22;55298;-36.624;-64.282;2023-08-06T11:01:37;8.70;67.10
59973;DHT22;55298;-36.624;-64.282;2023-08-06T11:04:06;8.70;67.50
59973;DHT22;55298;-36.624;-64.282;2023-08-06T11:06:34;8.60;67.80
59973;DHT22;55298;-36.624;-64.282;2023-08-06T11:11:38;8.60;66.60
59973;DHT22;55298;-36.624;-64.282;2023-08-06T11:14:06;9.50;67.60
59973;DHT22;55298;-36.624;-64.282;2023-08-06T11:16:33;8.80;67.20
59973;DHT22;55298;-36.624;-64.282;2023-08-06T11:19:02;8.80;67.80
59973;DHT22;55298;-36.624;-64.282;2023-08-06T11:21:31;8.60;66.80
59973;DHT22;55298;-36.624;-64.282;2023-08-06T11:23:59;8.10;67.50
59973;DHT22;55298;-36.624;-64.282;2023-08-06T11:28:58;8.50;66.30
59973;DHT22;55298;-36.624;-64.282;2023-08-06T11:31:26;8.50;65.90
59973;DHT22;55298;-36.624;-64.282;2023-08-06T11:33:55;8.60;66.70
59973;DHT22;55298;-36.624;-64.282;2023-08-06T11:36:30;8.60;64.90
59973;DHT22;55298;-36.624;-64.282;2023-08-06T11:39:00;8.50;63.90
59973;DHT22;55298;-36.624;-64.282;2023-08-06T11:41:30;8.80;63.00
59973;DHT22;55298;-36.624;-64.282;2023-08-06T11:44:00;8.80;63.70
59973;DHT22;55298;-36.624;-64.282;2023-08-06T11:46:28;9.90;59.10
59973;DHT22;55298;-36.624;-64.282;2023-08-06T11:48:58;10.60;57.50
59973;DHT22;55298;-36.624;-64.282;2023-08-06T11:51:28;10.60;57.90
59973;DHT22;55298;-36.624;-64.282;2023-08-06T11:54:02;11.30;55.30
59973;DHT22;55298;-36.624;-64.282;2023-08-06T11:56:30;12.30;52.20
59973;DHT22;55298;-36.624;-64.282;2023-08-06T11:58:58;12.80;50.20
59973;DHT22;55298;-36.624;-64.282;2023-08-06T12:02:09;12.70;50.20
59973;DHT22;55298;-36.624;-64.282;2023-08-06T12:13:03;14.90;44.20
59973;DHT22;55298;-36.624;-64.282;2023-08-06T12:15:31;15.50;41.80
59973;DHT22;55298;-36.624;-64.282;2023-08-06T12:18:00;15.70;40.10
59973;DHT22;55298;-36.624;-64.282;2023-08-06T12:20:29;15.70;40.00
59973;DHT22;55298;-36.624;-64.282;2023-08-06T12:22:58;15.80;40.00
59973;DHT22;55298;-36.624;-64.282;2023-08-06T12:25:26;15.90;40.00
59973;DHT22;55298;-36.624;-64.282;2023-08-06T12:27:55;16.00;39.00
59973;DHT22;55298;-36.624;-64.282;2023-08-06T12:30:23;17.60;38.60
59973;DHT22;55298;-36.624;-64.282;2023-08-06T12:32:52;16.50;36.30
59973;DHT22;55298;-36.624;-64.282;2023-08-06T12:35:20;16.80;36.80
59973;DHT22;55298;-36.624;-64.282;2023-08-06T12:37:48;17.10;36.00
59973;DHT22;55298;-36.624;-64.282;2023-08-06T12:40:18;17.70;35.40
59973;DHT22;55298;-36.624;-64.282;2023-08-06T12:42:46;18.10;34.20
59973;DHT22;55298;-36.624;-64.282;2023-08-06T12:45:13;18.30;32.80
59973;DHT22;55298;-36.624;-64.282;2023-08-06T12:47:41;18.60;32.90
59973;DHT22;55298;-36.624;-64.282;2023-08-06T12:50:11;19.00;32.20
59973;DHT22;55298;-36.624;-64.282;2023-08-06T12:52:39;19.30;30.60
59973;DHT22;55298;-36.624;-64.282;2023-08-06T12:55:07;19.40;30.10
59973;DHT22;55298;-36.624;-64.282;2023-08-06T12:57:37;19.30;29.70
59973;DHT22;55298;-36.624;-64.282;2023-08-06T13:00:05;19.30;29.00
59973;DHT22;55298;-36.624;-64.282;2023-08-06T13:02:33;19.30;29.30
59973;DHT22;55298;-36.624;-64.282;2023-08-06T13:05:01;19.70;28.70
59973;DHT22;55298;-36.624;-64.282;2023-08-06T13:07:32;19.60;29.00
59973;DHT22;55298;-36.624;-64.282;2023-08-06T13:10:00;19.70;28.70
59973;DHT22;55298;-36.624;-64.282;2023-08-06T13:12:27;19.80;28.60
59973;DHT22;55298;-36.624;-64.282;2023-08-06T13:14:55;20.10;28.30
59973;DHT22;55298;-36.624;-64.282;2023-08-06T13:17:26;20.50;28.70
59973;DHT22;55298;-36.624;-64.282;2023-08-06T13:19:55;20.70;27.50
59973;DHT22;55298;-36.624;-64.282;2023-08-06T13:22:27;20.80;26.60
59973;DHT22;55298;-36.624;-64.282;2023-08-06T13:24:54;20.90;26.70
59973;DHT22;55298;-36.624;-64.282;2023-08-06T13:27:25;21.00;26.30
59973;DHT22;55298;-36.624;-64.282;2023-08-06T13:30:17;21.30;26.00
59973;DHT22;55298;-36.624;-64.282;2023-08-06T13:32:46;21.50;25.80
59973;DHT22;55298;-36.624;-64.282;2023-08-06T13:35:14;21.80;26.20
59973;DHT22;55298;-36.624;-64.282;2023-08-06T13:37:42;22.10;25.50
59973;DHT22;55298;-36.624;-64.282;2023-08-06T13:40:10;22.10;24.30
59973;DHT22;55298;-36.624;-64.282;2023-08-06T13:42:38;22.30;25.30
59973;DHT22;55298;-36.624;-64.282;2023-08-06T13:45:07;22.30;24.80
59973;DHT22;55298;-36.624;-64.282;2023-08-06T13:47:36;22.40;24.80
59973;DHT22;55298;-36.624;-64.282;2023-08-06T13:50:04;22.50;24.30
59973;DHT22;55298;-36.624;-64.282;2023-08-06T13:52:32;22.70;24.30
59973;DHT22;55298;-36.624;-64.282;2023-08-06T13:55:02;22.60;23.70
59973;DHT22;55298;-36.624;-64.282;2023-08-06T13:57:30;22.50;23.90
59973;DHT22;55298;-36.624;-64.282;2023-08-06T13:59:58;22.50;24.20
59973;DHT22;55298;-36.624;-64.282;2023-08-06T14:02:26;22.60;23.40
59973;DHT22;55298;-36.624;-64.282;2023-08-06T14:04:54;22.60;23.70
59973;DHT22;55298;-36.624;-64.282;2023-08-06T14:07:22;22.60;23.50
59973;DHT22;55298;-36.624;-64.282;2023-08-06T14:09:49;22.40;24.00
59973;DHT22;55298;-36.624;-64.282;2023-08-06T14:12:17;22.20;24.30
59973;DHT22;55298;-36.624;-64.282;2023-08-06T14:14:45;22.30;24.10
59973;DHT22;55298;-36.624;-64.282;2023-08-06T14:17:13;22.60;24.50
59973;DHT22;55298;-36.624;-64.282;2023-08-06T14:19:42;23.00;23.80
59973;DHT22;55298;-36.624;-64.282;2023-08-06T14:22:10;23.10;23.40
59973;DHT22;55298;-36.624;-64.282;2023-08-06T14:24:38;23.40;23.90
59973;DHT22;55298;-36.624;-64.282;2023-08-06T14:27:06;23.10;22.80
59973;DHT22;55298;-36.624;-64.282;2023-08-06T14:29:34;23.10;23.40
59973;DHT22;55298;-36.624;-64.282;2023-08-06T14:32:01;23.20;24.00
59973;DHT22;55298;-36.624;-64.282;2023-08-06T14:34:29;23.20;23.40
59973;DHT22;55298;-36.624;-64.282;2023-08-06T14:36:57;23.10;23.90
59973;DHT22;55298;-36.624;-64.282;2023-08-06T14:39:26;23.10;24.30
59973;DHT22;55298;-36.624;-64.282;2023-08-06T14:41:55;22.80;24.00
59973;DHT22;55298;-36.624;-64.282;2023-08-06T14:44:22;22.90;24.40
59973;DHT22;55298;-36.624;-64.282;2023-08-06T14:46:50;23.30;24.20
59973;DHT22;55298;-36.624;-64.282;2023-08-06T14:49:18;23.80;24.60
59973;DHT22;55298;-36.624;-64.282;2023-08-06T14:51:46;23.90;23.50
59973;DHT22;55298;-36.624;-64.282;2023-08-06T14:54:13;23.70;24.40
59973;DHT22;55298;-36.624;-64.282;2023-08-06T14:56:41;23.40;23.80
59973;DHT22;55298;-36.624;-64.282;2023-08-06T14:59:09;22.70;23.70
59973;DHT22;55298;-36.624;-64.282;2023-08-06T15:01:37;22.40;23.70
59973;DHT22;55298;-36.624;-64.282;2023-08-06T15:04:05;21.90;24.60
59973;DHT22;55298;-36.624;-64.282;2023-08-06T15:06:32;21.70;25.40
59973;DHT22;55298;-36.624;-64.282;2023-08-06T15:09:00;21.20;25.30
59973;DHT22;55298;-36.624;-64.282;2023-08-06T15:11:30;20.70;25.90
59973;DHT22;55298;-36.624;-64.282;2023-08-06T15:13:57;20.50;26.60
59973;DHT22;55298;-36.624;-64.282;2023-08-06T15:16:27;20.00;26.50
59973;DHT22;55298;-36.624;-64.282;2023-08-06T15:18:55;19.90;27.00
59973;DHT22;55298;-36.624;-64.282;2023-08-06T15:21:24;19.80;27.40
59973;DHT22;55298;-36.624;-64.282;2023-08-06T15:23:51;19.80;27.00
59973;DHT22;55298;-36.624;-64.282;2023-08-06T15:26:19;19.70;26.80
59973;DHT22;55298;-36.624;-64.282;2023-08-06T15:28:48;19.70;27.30
59973;DHT22;55298;-36.624;-64.282;2023-08-06T15:31:18;19.70;27.60
59973;DHT22;55298;-36.624;-64.282;2023-08-06T15:33:48;19.70;27.20
59973;DHT22;55298;-36.624;-64.282;2023-08-06T15:36:16;19.80;27.20
59973;DHT22;55298;-36.624;-64.282;2023-08-06T15:38:44;19.80;26.30
59973;DHT22;55298;-36.624;-64.282;2023-08-06T15:41:12;19.80;26.30
59973;DHT22;55298;-36.624;-64.282;2023-08-06T15:43:40;19.80;26.70
59973;DHT22;55298;-36.624;-64.282;2023-08-06T15:46:09;19.80;26.20
59973;DHT22;55298;-36.624;-64.282;2023-08-06T15:48:37;19.80;25.90
59973;DHT22;55298;-36.624;-64.282;2023-08-06T15:51:06;19.80;25.50
59973;DHT22;55298;-36.624;-64.282;2023-08-06T15:53:34;19.90;24.60
59973;DHT22;55298;-36.624;-64.282;2023-08-06T15:56:03;20.20;24.60
59973;DHT22;55298;-36.624;-64.282;2023-08-06T15:58:32;20.50;23.00
59973;DHT22;55298;-36.624;-64.282;2023-08-06T16:00:59;20.60;23.10
59973;DHT22;55298;-36.624;-64.282;2023-08-06T16:03:29;20.50;23.30
59973;DHT22;55298;-36.624;-64.282;2023-08-06T16:05:56;20.50;24.30
59973;DHT22;55298;-36.624;-64.282;2023-08-06T16:08:24;20.50;23.80
59973;DHT22;55298;-36.624;-64.282;2023-08-06T16:10:52;20.50;24.30
59973;DHT22;55298;-36.624;-64.282;2023-08-06T16:13:19;20.50;23.90
59973;DHT22;55298;-36.624;-64.282;2023-08-06T16:15:47;20.40;24.00
59973;DHT22;55298;-36.624;-64.282;2023-08-06T16:18:15;20.40;23.60